Tinsdal — V2AJ2 — position and weather

sailwx.info

Track history (hours):
 
Tides and Currents Weather Stations Pressure Air Temp Water Temp Dewpoint Dewpoint Depression Visibility Wind Speed Wind Dir Waves Ship Positions

Tinsdal

Last reported at 2017-May-24 09:30 UTC. Time now 2017-May-24 09:56 UTC.
Position N 53°29' E 009°59'.

Length 90 m; draft 5.9 m.

Type: Cargo ship. MMSI: 305573000.

Date/timePositionNaut miles runAvg speedWind from/ knotsBaromVisibWave heightAir tempDewpointWater temp
2017-May-24 09:30N 53°29' E 009°59'0 0.0
2017-May-24 09:00N 53°29' E 009°59'0 0.0
2017-May-24 08:27N 53°29' E 009°59'0 0.0
2017-May-24 08:00N 53°29' E 009°59'0 0.0
2017-May-24 07:30N 53°29' E 009°59'0 0.0
2017-May-24 07:00N 53°29' E 009°59'0 0.0
2017-May-24 06:30N 53°29' E 009°59'0 0.0
2017-May-24 06:00N 53°29' E 009°59'0 0.0
2017-May-24 05:30N 53°29' E 009°59'0 0.0
2017-May-24 05:00N 53°29' E 009°59'0 1.0
2017-May-24 04:30N 53°30' E 009°59'1 2.5
2017-May-24 04:00N 53°30' E 009°57'2 4.8
2017-May-24 03:30N 53°32' E 009°55'3 6.3
2017-May-24 03:00N 53°33' E 009°50'4 7.2
2017-May-24 02:30N 53°34' E 009°44'4 8.0
2017-May-24 02:00N 53°35' E 009°37'4 8.8
2017-May-24 01:30N 53°38' E 009°32'5 9.6
2017-May-24 01:00N 53°42' E 009°29'5 9.8
2017-May-24 00:30N 53°46' E 009°24'510.7
2017-May-24 00:00N 53°51' E 009°20'611.1
2017-May-23 23:30N 53°53' E 009°11'5 9.6
2017-May-23 23:00N 53°52' E 009°03'510.9
2017-May-23 22:30N 53°50' E 008°54'610.9
2017-May-23 22:00N 53°51' E 008°45'154 8.3
2017-May-23 03:25N 53°12' E 004°35'511.4
2017-May-23 03:00N 53°08' E 004°30'611.6
2017-May-23 02:30N 53°03' E 004°25'611.5
2017-May-23 02:00N 52°58' E 004°20'611.6
2017-May-23 01:30N 52°53' E 004°16'611.6
2017-May-23 01:00N 52°48' E 004°12'611.2
2017-May-23 00:28N 52°44' E 004°05'511.3
2017-May-23 00:00N 52°40' E 003°58'511.0
2017-May-22 23:30N 52°36' E 003°52'610.9
2017-May-22 22:59N 52°32' E 003°46'510.8
2017-May-22 22:29N 52°28' E 003°40'510.6
2017-May-22 21:59N 52°24' E 003°34'69 9.4
2017-May-22 14:37N 51°32' E 002°20'6 9.8
2017-May-22 14:00N 51°27' E 002°14'510.3
2017-May-22 13:30N 51°23' E 002°11'510.4
2017-May-22 13:00N 51°18' E 002°07'510.3
2017-May-22 12:30N 51°14' E 002°02'510.8
2017-May-22 12:00N 51°11' E 001°55'510.9
2017-May-22 11:30N 51°08' E 001°48'611.4
2017-May-22 11:00N 51°03' E 001°42'611.8
2017-May-22 10:30N 50°59' E 001°36'1412.6
2017-May-22 09:26N 50°47' E 001°25'512.5
2017-May-22 09:00N 50°42' E 001°22'611.9
2017-May-22 08:30N 50°38' E 001°15'611.6
2017-May-22 08:00N 50°34' E 001°09'611.4
2017-May-22 07:30N 50°30' E 001°02'611.3
2017-May-22 07:00N 50°27' E 000°54'2011.4
2017-May-22 05:12N 50°22' E 000°24'211.3
2017-May-22 05:00N 50°21' E 000°20'611.3
2017-May-22 04:30N 50°20' E 000°12'611.0
2017-May-22 04:00N 50°18' E 000°03'5 9.4
2017-May-22 03:30N 50°17' W 000°04'510.5
2017-May-22 03:00N 50°16' W 000°12'5 9.6
2017-May-22 02:30N 50°15' W 000°19'5 9.8
2017-May-22 01:58N 50°13' W 000°27'5 9.4
2017-May-22 01:28N 50°12' W 000°34'5 9.0
2017-May-22 00:53N 50°11' W 000°42'73 9.0
2017-May-21 16:46N 49°52' W 002°32'311.4
2017-May-21 16:30N 49°51' W 002°36'611.5
2017-May-21 16:00N 49°50' W 002°45'611.3
2017-May-21 15:30N 49°47' W 002°53'611.5
2017-May-21 15:00N 49°45' W 003°01'1111.2
2017-May-21 14:00N 49°39' W 003°16'611.1
2017-May-21 13:30N 49°36' W 003°23'611.0
2017-May-21 13:00N 49°33' W 003°30'510.9
2017-May-21 12:30N 49°30' W 003°37'610.8
2017-May-21 11:56N 49°27' W 003°46'510.8
2017-May-21 11:27N 49°25' W 003°53'1210.5
2017-May-21 10:20N 49°19' W 004°08'510.3
2017-May-21 09:51N 49°16' W 004°15'43 9.6
2017-May-21 05:22N 48°54' W 005°11'4 9.0
2017-May-21 04:54N 48°52' W 005°17'4 9.0
2017-May-21 04:29N 48°51' W 005°22'5 9.0
2017-May-21 03:58N 48°48' W 005°28'9 8.7
2017-May-21 02:53N 48°42' W 005°38'32 8.2
2017-May-20 22:58N 48°12' W 005°21'11 9.3
2017-May-20 21:48N 48°02' W 005°14'4 9.8
2017-May-20 21:21N 47°58' W 005°11'4 9.6
2017-May-20 20:58N 47°55' W 005°08'4 9.6
2017-May-20 20:30N 47°51' W 005°04'5 9.3
2017-May-20 19:59N 47°47' W 005°00'8 9.4
2017-May-20 19:06N 47°41' W 004°52'1 9.6
2017-May-20 18:59N 47°40' W 004°51'134 9.2
2017-May-20 04:25N 46°23' W 002°10'4 8.5
2017-May-20 04:00N 46°20' W 002°07'4 8.7
2017-May-20 03:30N 46°17' W 002°02'4 8.7
2017-May-20 03:00N 46°15' W 001°57'4 8.8
2017-May-20 02:30N 46°12' W 001°52'7 8.5
2017-May-20 01:38N 46°08' W 001°42'12 9.0
2017-May-20 00:15N 46°06' W 001°25'2 9.8
2017-May-20 00:00N 46°06' W 001°21'4 9.0
2017-May-19 23:30N 46°04' W 001°16'5 9.7
2017-May-19 23:00N 46°00' W 001°11'5 8.1
2017-May-19 22:20N 45°57' W 001°04'  
2017-May-16 18:11N 45°56' W 000°55'2 7.6
2017-May-16 17:57N 45°57' W 000°57'2 5.5
2017-May-16 17:30N 45°56' W 001°00'2 4.5
2017-May-16 17:01N 45°57' W 001°03'510.2
2017-May-16 16:31N 45°60' W 001°09'611.5
2017-May-16 16:00N 46°04' W 001°15'3 5.2
2017-May-16 15:30N 46°05' W 001°18'2 4.3
2017-May-16 14:56N 46°06' W 001°22'2 4.3
2017-May-16 14:30N 46°06' W 001°24'7 4.7
2017-May-16 13:03N 46°07' W 001°34'0 7.1
2017-May-16 13:00N 46°07' W 001°35'3 6.9
2017-May-16 12:30N 46°08' W 001°40'2 3.3
2017-May-16 11:58N 46°08' W 001°42'6 3.3
2017-May-16 10:17N 46°03' W 001°46'2 4.2
2017-May-16 09:53N 46°02' W 001°47'8 7.0
2017-May-16 08:48N 45°54' W 001°49'99 9.9
2017-May-15 22:52N 44°22' W 002°38'410.6
2017-May-15 22:31N 44°18' W 002°39'510.4
2017-May-15 21:59N 44°13' W 002°42'510.8
2017-May-15 21:30N 44°08' W 002°44'510.5
2017-May-15 21:00N 44°03' W 002°46'  
Track history (hours):
 
Tides and Currents Weather Stations Pressure Air Temp Water Temp Dewpoint Dewpoint Depression Visibility Wind Speed Wind Dir Waves Ship Positions

Tinsdal

Last reported at 2017-May-24 09:30 UTC. Time now 2017-May-24 09:56 UTC.
Position N 53°29' E 009°59'.

Length 90 m; draft 5.9 m.

Type: Cargo ship. MMSI: 305573000.

Date/timePositionNaut miles runAvg speedWind from/ knotsBaromVisibWave heightAir tempDewpointWater temp
2017-May-24 09:30N 53°29' E 009°59'0 0.0
2017-May-24 09:00N 53°29' E 009°59'0 0.0
2017-May-24 08:27N 53°29' E 009°59'0 0.0
2017-May-24 08:00N 53°29' E 009°59'0 0.0
2017-May-24 07:30N 53°29' E 009°59'0 0.0
2017-May-24 07:00N 53°29' E 009°59'0 0.0
2017-May-24 06:30N 53°29' E 009°59'0 0.0
2017-May-24 06:00N 53°29' E 009°59'0 0.0
2017-May-24 05:30N 53°29' E 009°59'0 0.0
2017-May-24 05:00N 53°29' E 009°59'0 1.0
2017-May-24 04:30N 53°30' E 009°59'1 2.5
2017-May-24 04:00N 53°30' E 009°57'2 4.8
2017-May-24 03:30N 53°32' E 009°55'3 6.3
2017-May-24 03:00N 53°33' E 009°50'4 7.2
2017-May-24 02:30N 53°34' E 009°44'4 8.0
2017-May-24 02:00N 53°35' E 009°37'4 8.8
2017-May-24 01:30N 53°38' E 009°32'5 9.6
2017-May-24 01:00N 53°42' E 009°29'5 9.8
2017-May-24 00:30N 53°46' E 009°24'510.7
2017-May-24 00:00N 53°51' E 009°20'611.1
2017-May-23 23:30N 53°53' E 009°11'5 9.6
2017-May-23 23:00N 53°52' E 009°03'510.9
2017-May-23 22:30N 53°50' E 008°54'610.9
2017-May-23 22:00N 53°51' E 008°45'154 8.3
2017-May-23 03:25N 53°12' E 004°35'511.4
2017-May-23 03:00N 53°08' E 004°30'611.6
2017-May-23 02:30N 53°03' E 004°25'611.5
2017-May-23 02:00N 52°58' E 004°20'611.6
2017-May-23 01:30N 52°53' E 004°16'611.6
2017-May-23 01:00N 52°48' E 004°12'611.2
2017-May-23 00:28N 52°44' E 004°05'511.3
2017-May-23 00:00N 52°40' E 003°58'511.0
2017-May-22 23:30N 52°36' E 003°52'610.9
2017-May-22 22:59N 52°32' E 003°46'510.8
2017-May-22 22:29N 52°28' E 003°40'510.6
2017-May-22 21:59N 52°24' E 003°34'69 9.4
2017-May-22 14:37N 51°32' E 002°20'6 9.8
2017-May-22 14:00N 51°27' E 002°14'510.3
2017-May-22 13:30N 51°23' E 002°11'510.4
2017-May-22 13:00N 51°18' E 002°07'510.3
2017-May-22 12:30N 51°14' E 002°02'510.8
2017-May-22 12:00N 51°11' E 001°55'510.9
2017-May-22 11:30N 51°08' E 001°48'611.4
2017-May-22 11:00N 51°03' E 001°42'611.8
2017-May-22 10:30N 50°59' E 001°36'1412.6
2017-May-22 09:26N 50°47' E 001°25'512.5
2017-May-22 09:00N 50°42' E 001°22'611.9
2017-May-22 08:30N 50°38' E 001°15'611.6
2017-May-22 08:00N 50°34' E 001°09'611.4
2017-May-22 07:30N 50°30' E 001°02'611.3
2017-May-22 07:00N 50°27' E 000°54'2011.4
2017-May-22 05:12N 50°22' E 000°24'211.3
2017-May-22 05:00N 50°21' E 000°20'611.3
2017-May-22 04:30N 50°20' E 000°12'611.0
2017-May-22 04:00N 50°18' E 000°03'5 9.4
2017-May-22 03:30N 50°17' W 000°04'510.5
2017-May-22 03:00N 50°16' W 000°12'5 9.6
2017-May-22 02:30N 50°15' W 000°19'5 9.8
2017-May-22 01:58N 50°13' W 000°27'5 9.4
2017-May-22 01:28N 50°12' W 000°34'5 9.0
2017-May-22 00:53N 50°11' W 000°42'73 9.0
2017-May-21 16:46N 49°52' W 002°32'311.4
2017-May-21 16:30N 49°51' W 002°36'611.5
2017-May-21 16:00N 49°50' W 002°45'611.3
2017-May-21 15:30N 49°47' W 002°53'611.5
2017-May-21 15:00N 49°45' W 003°01'1111.2
2017-May-21 14:00N 49°39' W 003°16'611.1
2017-May-21 13:30N 49°36' W 003°23'611.0
2017-May-21 13:00N 49°33' W 003°30'510.9
2017-May-21 12:30N 49°30' W 003°37'610.8
2017-May-21 11:56N 49°27' W 003°46'510.8
2017-May-21 11:27N 49°25' W 003°53'1210.5
2017-May-21 10:20N 49°19' W 004°08'510.3
2017-May-21 09:51N 49°16' W 004°15'43 9.6
2017-May-21 05:22N 48°54' W 005°11'4 9.0
2017-May-21 04:54N 48°52' W 005°17'4 9.0
2017-May-21 04:29N 48°51' W 005°22'5 9.0
2017-May-21 03:58N 48°48' W 005°28'9 8.7
2017-May-21 02:53N 48°42' W 005°38'32 8.2
2017-May-20 22:58N 48°12' W 005°21'11 9.3
2017-May-20 21:48N 48°02' W 005°14'4 9.8
2017-May-20 21:21N 47°58' W 005°11'4 9.6
2017-May-20 20:58N 47°55' W 005°08'4 9.6
2017-May-20 20:30N 47°51' W 005°04'5 9.3
2017-May-20 19:59N 47°47' W 005°00'8 9.4
2017-May-20 19:06N 47°41' W 004°52'1 9.6
2017-May-20 18:59N 47°40' W 004°51'134 9.2
2017-May-20 04:25N 46°23' W 002°10'4 8.5
2017-May-20 04:00N 46°20' W 002°07'4 8.7
2017-May-20 03:30N 46°17' W 002°02'4 8.7
2017-May-20 03:00N 46°15' W 001°57'4 8.8
2017-May-20 02:30N 46°12' W 001°52'7 8.5
2017-May-20 01:38N 46°08' W 001°42'12 9.0
2017-May-20 00:15N 46°06' W 001°25'2 9.8
2017-May-20 00:00N 46°06' W 001°21'4 9.0
2017-May-19 23:30N 46°04' W 001°16'5 9.7
2017-May-19 23:00N 46°00' W 001°11'5 8.1
2017-May-19 22:20N 45°57' W 001°04'  
2017-May-16 18:11N 45°56' W 000°55'2 7.6
2017-May-16 17:57N 45°57' W 000°57'2 5.5
2017-May-16 17:30N 45°56' W 001°00'2 4.5
2017-May-16 17:01N 45°57' W 001°03'510.2
2017-May-16 16:31N 45°60' W 001°09'611.5
2017-May-16 16:00N 46°04' W 001°15'3 5.2
2017-May-16 15:30N 46°05' W 001°18'2 4.3
2017-May-16 14:56N 46°06' W 001°22'2 4.3
2017-May-16 14:30N 46°06' W 001°24'7 4.7
2017-May-16 13:03N 46°07' W 001°34'0 7.1
2017-May-16 13:00N 46°07' W 001°35'3 6.9
2017-May-16 12:30N 46°08' W 001°40'2 3.3
2017-May-16 11:58N 46°08' W 001°42'6 3.3
2017-May-16 10:17N 46°03' W 001°46'2 4.2
2017-May-16 09:53N 46°02' W 001°47'8 7.0
2017-May-16 08:48N 45°54' W 001°49'99 9.9
2017-May-15 22:52N 44°22' W 002°38'410.6
2017-May-15 22:31N 44°18' W 002°39'510.4
2017-May-15 21:59N 44°13' W 002°42'510.8
2017-May-15 21:30N 44°08' W 002°44'510.5
2017-May-15 21:00N 44°03' W 002°46'  

Dump ship's entire track history